Aeroporto :
LOGIN :

Iscrizione | Disclaimer

   EN    FR    IT 

 










Sommario :    VFR   VFR Marginale   IFR   IFR Intensivo   IFR Molto Intensivo
Visibilità : 
Base nubi : 
>= 8 km
>= 3000ft
5 / 8 km
1000 / 3000 ft
1500m / 5 km
500 / 1000 ft
800 / 1500m
200 / 500 ft
< 800m
< 200 ft
Simboli :   Temporali  Nebbia  Neve Forte  Precipitazioni Forti  Vento > 20 kt
SIGMETs :   Varie  Temporali  Ghiacco  Turbolenza  Onda orograficha  Ceneri Vulcaniche







- Altitudine del aeroporto : 157 ft
- Codice IATA : LIL
- Carte del aeroporto


LFQQ - Lille Lesquin

ULTIMO METAR :
  • 201530Z AUTO 27013KT 240V300 CAVOK 22/09 Q1024 NOSIG

METARs OBSOLETI :
  • 201500Z AUTO 28013KT 250V310 9999 FEW048 22/09 Q1024 NOSIG
  • 201430Z AUTO 29014KT 9999 FEW048 22/10 Q1023 NOSIG
  • 201400Z AUTO 28015KT 240V300 9999 SCT049 BKN062 BKN074 22/10 Q1023 NOSIG
  • 201330Z AUTO 26013KT 9999 SCT049 SCT060 BKN078 22/09 Q1023 NOSIG
  • 201300Z AUTO 26012KT 9999 SCT049 SCT072 22/09 Q1023 NOSIG

TAF TAF LFQQ
Valido dal 20 a 12 ore il 21 a 18 ore UTC


201100Z 2012/2118 28010KT 9999 SCT040
BECMG 2020/2022 20003KT
BECMG 2101/2103 3000 BR
TEMPO 2103/2106 0800 FG
BECMG 2106/2108 CAVOK
ATIS : +33 3 20 16 19 54
Nessun NOTAM noto per questo aeroporto.



MetMap, La meteo Aeronautica in un colpo d'occhio ! - Copyright ORBIFLY Dicembre 2007 - Disclaimer

ORBIFLY MET'MAP TEAM :

Programmazione e sviluppo : Alexandra Zaïnal
Concezione e sviluppo : Baudouin d'Aumeries
Co-Programmazione e sviluppo : Marc-Olivier Méhu
Supporto tecnico e logistico : Manuel Goepfert
Aiuto per la traduzione : Arnaldo La Scala

Contatto : metmap@orbifly.com




FONTI E CREDITI :

   NOAA